Time;durP1;ratioP1;P1;durP2;ratioP2;P2;SDS_P1;SDS_P2;PMS_P1;PMS_P2;Temp;Humidity;BMP_temperature;BMP_pressure;BME280_temperature;BME280_humidity;BME280_pressure;Samples;Min_cycle;Max_cycle;Signal;HPM_P1;HPM_P2
2024/01/29 00:02:16;;;;;;;5.40;2.88;;;;;;;3.37;79.32;102232.00;5026193;28;20200;-45
2024/01/29 00:04:42;;;;;;;6.55;2.95;;;;;;;3.47;79.18;102224.22;5010090;28;20265;-46
2024/01/29 00:07:07;;;;;;;5.47;2.25;;;;;;;3.49;79.25;102221.59;5025684;28;20741;-43
2024/01/29 00:09:33;;;;;;;4.68;2.30;;;;;;;3.55;78.97;102219.03;5027835;28;20190;-44
2024/01/29 00:11:59;;;;;;;4.13;2.45;;;;;;;3.56;78.73;102218.16;5022680;28;20221;-45
2024/01/29 00:14:24;;;;;;;5.82;2.42;;;;;;;3.56;78.51;102209.31;5022034;28;20280;-45
2024/01/29 00:16:50;;;;;;;3.72;1.98;;;;;;;3.57;78.74;102213.75;5027466;28;20677;-44
2024/01/29 00:19:15;;;;;;;3.25;2.20;;;;;;;3.54;78.39;102209.28;5022408;28;20220;-44
2024/01/29 00:21:41;;;;;;;4.10;2.10;;;;;;;3.61;78.26;102212.94;5024792;28;20176;-43
2024/01/29 00:24:06;;;;;;;5.55;2.20;;;;;;;3.60;78.53;102201.41;5025086;28;20191;-44
2024/01/29 00:26:33;;;;;;;5.28;2.38;;;;;;;3.64;78.00;102197.06;5021858;28;20263;-45
2024/01/29 00:28:58;;;;;;;5.03;2.05;;;;;;;3.68;77.67;102191.81;5026960;28;20184;-45
2024/01/29 00:31:24;;;;;;;7.53;2.47;;;;;;;3.66;77.67;102198.84;5025830;28;20241;-44
2024/01/29 00:33:51;;;;;;;4.30;2.25;;;;;;;3.62;78.01;102197.03;5026486;28;20185;-47
2024/01/29 00:36:17;;;;;;;2.97;2.08;;;;;;;3.66;77.73;102193.56;5023620;28;20713;-46
2024/01/29 00:38:43;;;;;;;7.93;2.28;;;;;;;3.68;77.41;102197.13;5030659;28;20189;-44
2024/01/29 00:41:08;;;;;;;8.02;2.20;;;;;;;3.64;77.44;102195.28;5027186;28;20689;-45
2024/01/29 00:43:34;;;;;;;5.78;2.42;;;;;;;3.66;77.45;102197.97;5022479;28;20203;-46
2024/01/29 00:45:59;;;;;;;3.05;2.05;;;;;;;3.64;77.54;102195.28;5026554;28;20227;-45
2024/01/29 00:48:25;;;;;;;4.30;2.42;;;;;;;3.62;77.63;102199.69;5024888;28;20207;-44
2024/01/29 00:50:52;;;;;;;4.03;2.05;;;;;;;3.62;77.59;102202.31;5023398;28;20199;-45
2024/01/29 00:53:18;;;;;;;4.30;2.28;;;;;;;3.66;77.36;102204.16;5024136;28;20179;-44
2024/01/29 00:55:45;;;;;;;4.93;2.20;;;;;;;3.68;76.92;102205.06;5028092;28;20216;-45
2024/01/29 00:58:12;;;;;;;4.72;2.30;;;;;;;3.68;77.04;102210.38;5020075;28;20606;-45
2024/01/29 01:00:38;;;;;;;4.82;2.08;;;;;;;3.65;77.16;102204.13;5024055;28;20197;-46
2024/01/29 01:03:05;;;;;;;3.67;2.10;;;;;;;3.63;77.19;102201.47;5021225;28;20188;-44
2024/01/29 01:05:31;;;;;;;3.60;2.20;;;;;;;3.61;77.13;102200.56;5022276;28;20196;-46
2024/01/29 01:07:57;;;;;;;4.25;2.08;;;;;;;3.57;76.98;102204.03;5023696;28;20192;-45
2024/01/29 01:10:22;;;;;;;3.78;2.15;;;;;;;3.61;77.01;102204.97;5021392;28;20181;-45
2024/01/29 01:12:48;;;;;;;3.33;2.30;;;;;;;3.58;77.18;102200.50;5022206;28;20189;-45
2024/01/29 01:15:13;;;;;;;5.13;2.35;;;;;;;3.62;76.80;102197.03;5025160;28;20204;-43
2024/01/29 01:17:40;;;;;;;4.38;2.08;;;;;;;3.69;76.93;102196.22;5024287;28;20354;-44
2024/01/29 01:20:06;;;;;;;3.08;2.13;;;;;;;3.73;76.44;102205.13;5018048;28;20207;-44
2024/01/29 01:22:32;;;;;;;3.85;1.92;;;;;;;3.75;76.61;102192.78;5025700;28;20195;-46
2024/01/29 01:24:57;;;;;;;3.92;1.90;;;;;;;3.68;76.26;102197.13;5023195;28;20843;-43
2024/01/29 01:27:23;;;;;;;5.20;2.38;;;;;;;3.65;76.37;102197.09;5025060;28;20205;-44
2024/01/29 01:29:48;;;;;;;3.88;1.80;;;;;;;3.66;76.65;102190.91;5025637;28;20239;-44
2024/01/29 01:32:13;;;;;;;3.92;2.28;;;;;;;3.69;76.25;102195.34;5020669;28;20184;-44
2024/01/29 01:34:39;;;;;;;5.45;2.22;;;;;;;3.66;76.55;102200.63;5020980;28;20204;-45
2024/01/29 01:37:04;;;;;;;3.22;1.95;;;;;;;3.66;76.16;102211.22;5024795;28;20196;-44
2024/01/29 01:39:31;;;;;;;4.10;1.80;;;;;;;3.69;76.19;102208.59;5025070;28;20678;-45
2024/01/29 01:41:57;;;;;;;2.92;2.13;;;;;;;3.65;75.97;102199.75;5022451;28;20202;-45
2024/01/29 01:44:22;;;;;;;5.78;2.42;;;;;;;3.60;76.38;102208.50;5020198;28;20191;-45
2024/01/29 01:46:48;;;;;;;9.10;2.35;;;;;;;3.54;76.33;102209.28;5023486;28;20936;-45
2024/01/29 01:49:14;;;;;;;2.50;2.03;;;;;;;3.48;76.62;102201.28;5019486;28;20530;-45
2024/01/29 01:51:40;;;;;;;3.28;2.10;;;;;;;3.49;76.65;102211.00;5020976;28;20307;-44
2024/01/29 01:54:08;;;;;;;3.85;2.10;;;;;;;3.48;76.78;102215.41;5022894;28;20222;-43
2024/01/29 01:56:34;;;;;;;2.92;1.92;;;;;;;3.48;76.58;102211.88;5019898;28;20788;-45
2024/01/29 01:59:03;;;;;;;2.70;1.90;;;;;;;3.43;76.61;102217.13;5024705;28;20684;-44
2024/01/29 02:01:29;;;;;;;4.38;2.00;;;;;;;3.41;76.89;102216.22;5026408;28;20188;-45
2024/01/29 02:03:55;;;;;;;3.05;2.13;;;;;;;3.41;76.97;102218.84;5023352;28;20184;-47
2024/01/29 02:06:20;;;;;;;2.13;1.90;;;;;;;3.39;76.90;102217.03;5013913;28;20233;-44
2024/01/29 02:08:46;;;;;;;3.72;1.80;;;;;;;3.39;76.82;102220.59;5020062;28;20717;-43
2024/01/29 02:11:11;;;;;;;6.43;1.95;;;;;;;3.44;76.93;102223.31;5003546;28;20527;-45
2024/01/29 02:13:37;;;;;;;5.13;2.38;;;;;;;3.45;76.69;102219.78;5022605;28;20192;-46
2024/01/29 02:16:03;;;;;;;4.82;1.80;;;;;;;3.39;76.47;102211.72;5021890;28;20266;-45
2024/01/29 02:18:29;;;;;;;2.30;1.90;;;;;;;3.47;76.35;102212.72;5020311;28;20254;-43
2024/01/29 02:20:55;;;;;;;3.42;1.85;;;;;;;3.38;76.50;102205.56;5019275;28;20858;-47
2024/01/29 02:23:20;;;;;;;3.42;2.03;;;;;;;3.44;76.17;102210.06;5022657;28;20234;-44
2024/01/29 02:25:46;;;;;;;4.95;1.65;;;;;;;3.44;76.04;102212.72;5020937;28;20343;-43
2024/01/29 02:28:11;;;;;;;2.53;1.88;;;;;;;3.37;76.04;102211.72;5015977;28;20188;-45
2024/01/29 02:30:37;;;;;;;3.38;2.20;;;;;;;3.34;76.18;102205.50;5020174;28;20176;-44
2024/01/29 02:33:03;;;;;;;5.32;2.08;;;;;;;3.39;75.98;102212.66;5021232;28;20187;-45
2024/01/29 02:35:29;;;;;;;3.13;1.88;;;;;;;3.39;76.27;102203.78;5018086;28;20172;-44
2024/01/29 02:37:54;;;;;;;4.32;1.90;;;;;;;3.36;76.14;102207.28;5020949;28;20191;-42
2024/01/29 02:40:20;;;;;;;4.28;1.90;;;;;;;3.35;76.17;102191.41;5021565;28;20215;-45
2024/01/29 02:42:45;;;;;;;3.15;1.98;;;;;;;3.30;75.95;102204.53;5015451;28;20187;-46
2024/01/29 02:45:11;;;;;;;4.68;2.10;;;;;;;3.25;76.40;102200.94;5023478;28;20176;-46
2024/01/29 02:47:36;;;;;;;3.97;1.85;;;;;;;3.24;76.04;102207.13;5020811;28;20216;-46
2024/01/29 02:50:02;;;;;;;2.53;1.67;;;;;;;3.26;76.23;102198.34;5019866;28;20654;-46
2024/01/29 02:52:28;;;;;;;2.53;1.70;;;;;;;3.26;75.96;102187.75;5021965;28;20575;-45
2024/01/29 02:54:53;;;;;;;3.17;1.92;;;;;;;3.30;76.13;102188.66;5022118;28;20184;-45
2024/01/29 02:57:23;;;;;;;4.75;1.80;;;;;;;3.37;75.78;102193.19;5019978;28;20192;-45
2024/01/29 02:59:50;;;;;;;3.83;1.73;;;;;;;3.32;75.51;102191.34;5020262;28;20262;-45
2024/01/29 03:02:15;;;;;;;4.20;2.17;;;;;;;3.27;75.60;102191.28;5022464;28;20694;-43
2024/01/29 03:04:41;;;;;;;2.42;1.70;;;;;;;3.33;75.53;102190.47;5019509;28;20215;-46
2024/01/29 03:07:06;;;;;;;4.80;1.70;;;;;;;3.30;75.39;102183.34;5016638;28;20204;-45
2024/01/29 03:09:32;;;;;;;3.75;1.98;;;;;;;3.39;75.37;102174.63;5018833;28;20199;-44
2024/01/29 03:11:57;;;;;;;2.40;1.38;;;;;;;3.44;75.09;102175.63;5020950;28;20180;-45
2024/01/29 03:14:22;;;;;;;3.22;2.00;;;;;;;3.39;74.84;102177.28;5019579;28;20207;-44
2024/01/29 03:16:51;;;;;;;2.22;1.75;;;;;;;3.40;74.97;102165.84;5002115;28;20249;-46
2024/01/29 03:19:16;;;;;;;2.88;1.85;;;;;;;3.49;74.50;102163.31;5019707;28;20200;-44
2024/01/29 03:21:42;;;;;;;4.20;1.80;;;;;;;3.49;74.47;102152.72;5021036;28;20181;-45
2024/01/29 03:24:08;;;;;;;5.13;1.92;;;;;;;3.51;74.32;102158.91;5020627;28;20168;-44
2024/01/29 03:26:33;;;;;;;5.85;3.08;;;;;;;3.61;73.76;102149.34;5025127;28;20305;-44
2024/01/29 03:28:59;;;;;;;3.75;2.10;;;;;;;3.58;73.58;102143.97;5012378;28;20195;-46
2024/01/29 03:31:24;;;;;;;4.78;1.90;;;;;;;3.70;73.23;102145.00;5026904;28;20477;-45
2024/01/29 03:33:50;;;;;;;2.78;1.50;;;;;;;3.74;73.03;102129.13;5025604;28;20195;-43
2024/01/29 03:36:15;;;;;;;6.25;2.03;;;;;;;3.68;72.76;102136.16;5022425;28;20212;-46
2024/01/29 03:38:41;;;;;;;3.53;1.58;;;;;;;3.60;72.73;102119.28;5030228;28;20180;-44
2024/01/29 03:41:06;;;;;;;2.05;1.45;;;;;;;3.70;72.44;102121.16;5025877;28;20695;-45
2024/01/29 03:43:32;;;;;;;4.72;2.05;;;;;;;3.66;72.37;102107.84;5027978;28;20258;-45
2024/01/29 03:45:58;;;;;;;3.35;1.90;;;;;;;3.62;72.17;102116.66;5027355;28;20547;-45
2024/01/29 03:48:23;;;;;;;3.83;1.63;;;;;;;3.65;72.38;102114.94;5010012;28;20183;-42
2024/01/29 03:50:48;;;;;;;1.83;1.48;;;;;;;3.58;72.32;102122.78;5030260;22;20226;-46
2024/01/29 03:53:14;;;;;;;2.92;1.63;;;;;;;3.54;72.60;102126.25;4996697;28;20200;-46
2024/01/29 03:55:40;;;;;;;3.60;1.65;;;;;;;3.54;72.52;102116.53;4998719;28;20235;-48
2024/01/29 03:58:06;;;;;;;1.55;1.42;;;;;;;3.48;72.57;102120.03;4980152;28;20189;-47
2024/01/29 04:00:31;;;;;;;2.80;1.60;;;;;;;3.57;72.18;102102.47;4984343;28;20654;-47
2024/01/29 04:02:58;;;;;;;4.15;1.70;;;;;;;3.61;72.57;102101.63;4984264;28;20189;-46
2024/01/29 04:05:24;;;;;;;4.00;1.92;;;;;;;3.63;72.19;102103.41;4981425;28;20472;-48
2024/01/29 04:07:49;;;;;;;5.50;1.70;;;;;;;3.56;71.87;102100.66;4983322;28;20181;-45
2024/01/29 04:10:18;;;;;;;2.92;1.50;;;;;;;3.58;71.70;102099.81;4975414;28;20176;-46
2024/01/29 04:12:43;;;;;;;2.47;1.40;;;;;;;3.50;71.83;102101.50;4978019;28;20197;-46
2024/01/29 04:15:09;;;;;;;2.13;1.33;;;;;;;3.54;71.97;102103.28;4985399;28;21026;-47
2024/01/29 04:17:35;;;;;;;1.85;1.60;;;;;;;3.47;71.81;102085.56;4981485;28;20560;-46
2024/01/29 04:20:02;;;;;;;2.33;1.58;;;;;;;3.44;71.85;102091.72;4986422;28;20220;-46
2024/01/29 04:22:27;;;;;;;2.13;1.55;;;;;;;3.59;71.58;102091.00;4985901;28;20185;-46
2024/01/29 04:24:53;;;;;;;4.60;1.65;;;;;;;3.57;71.93;102092.75;4990272;28;20201;-46
2024/01/29 04:27:19;;;;;;;1.83;1.58;;;;;;;3.44;71.44;102089.06;4982450;28;20292;-45
2024/01/29 04:29:45;;;;;;;2.78;1.52;;;;;;;3.42;72.08;102092.56;4985112;28;20628;-46
2024/01/29 04:32:10;;;;;;;2.75;1.52;;;;;;;3.39;71.96;102101.38;4984383;28;20324;-47
2024/01/29 04:34:36;;;;;;;2.40;1.58;;;;;;;3.37;72.13;102095.16;4983539;28;20846;-45
2024/01/29 04:37:01;;;;;;;2.38;1.88;;;;;;;3.35;71.99;102101.34;4985575;28;20288;-45
2024/01/29 04:39:26;;;;;;;3.08;1.80;;;;;;;3.45;71.78;102108.50;4987323;28;20193;-45
2024/01/29 04:41:52;;;;;;;2.47;1.52;;;;;;;3.38;72.05;102091.63;4982058;28;20197;-46
2024/01/29 04:44:18;;;;;;;2.47;1.58;;;;;;;3.34;71.75;102083.63;4980287;28;20176;-46
2024/01/29 04:46:43;;;;;;;1.65;1.55;;;;;;;3.41;71.77;102081.09;4985198;28;20216;-46
2024/01/29 04:49:09;;;;;;;1.67;1.40;;;;;;;3.54;71.46;102081.22;4969157;28;20283;-45
2024/01/29 04:51:34;;;;;;;2.10;1.65;;;;;;;3.47;71.63;102081.13;4981266;28;20553;-44
2024/01/29 04:54:00;;;;;;;1.75;1.38;;;;;;;3.54;71.01;102083.88;4986071;28;20197;-45
2024/01/29 04:56:26;;;;;;;2.97;1.52;;;;;;;3.56;71.19;102079.47;4980838;28;20201;-45
2024/01/29 04:58:51;;;;;;;2.50;1.48;;;;;;;3.53;71.16;102072.38;4981050;28;20184;-47
2024/01/29 05:01:17;;;;;;;4.30;1.80;;;;;;;3.56;70.96;102075.06;4984856;28;20205;-47
2024/01/29 05:03:43;;;;;;;2.25;1.45;;;;;;;3.63;70.57;102066.31;4987788;28;20568;-45
2024/01/29 05:06:08;;;;;;;2.50;1.75;;;;;;;3.64;70.16;102060.13;4955662;28;20189;-47
2024/01/29 05:08:34;;;;;;;1.63;1.50;;;;;;;3.62;70.21;102040.66;4986388;28;20197;-46
2024/01/29 05:10:59;;;;;;;5.18;1.55;;;;;;;3.56;69.93;102042.38;4986640;28;20185;-47
2024/01/29 05:13:26;;;;;;;3.17;1.77;;;;;;;3.64;70.19;102052.19;4983844;28;20277;-45
2024/01/29 05:15:51;;;;;;;2.33;1.15;;;;;;;3.63;69.86;102050.41;4980425;28;20205;-46
2024/01/29 05:18:17;;;;;;;2.47;1.48;;;;;;;3.61;69.59;102038.91;4984166;28;20184;-45
2024/01/29 05:20:42;;;;;;;2.90;1.40;;;;;;;3.52;70.07;102033.53;4984048;28;20243;-47
2024/01/29 05:23:08;;;;;;;2.22;1.23;;;;;;;3.61;69.59;102038.91;4966565;28;20271;-48
2024/01/29 05:25:33;;;;;;;1.75;1.58;;;;;;;3.43;69.93;102041.34;4981967;28;20260;-47
2024/01/29 05:27:59;;;;;;;3.28;1.42;;;;;;;3.38;70.20;102041.31;4980985;28;20169;-45
2024/01/29 05:30:25;;;;;;;4.18;2.00;;;;;;;3.39;69.94;102039.53;4980209;28;20181;-46
2024/01/29 05:32:51;;;;;;;2.33;1.40;;;;;;;3.51;69.71;102035.25;4984877;28;20189;-46
2024/01/29 05:35:16;;;;;;;2.80;1.58;;;;;;;3.46;69.74;102041.41;4984197;28;20184;-46
2024/01/29 05:37:42;;;;;;;1.45;1.15;;;;;;;3.42;70.04;102042.25;4967261;28;20201;-47
2024/01/29 05:40:09;;;;;;;1.83;1.33;;;;;;;3.55;69.47;102022.94;4982278;28;20197;-47
2024/01/29 05:42:35;;;;;;;3.70;1.65;;;;;;;3.47;69.57;102020.19;4980869;28;20263;-46
2024/01/29 05:45:00;;;;;;;2.47;1.40;;;;;;;3.47;69.55;102024.63;4982462;28;20268;-45
2024/01/29 05:47:26;;;;;;;7.03;2.05;;;;;;;3.40;69.77;102018.38;4981587;28;20736;-46
2024/01/29 05:49:51;;;;;;;2.10;1.38;;;;;;;3.34;69.95;102020.06;4981842;28;20186;-47
2024/01/29 05:52:17;;;;;;;1.92;1.30;;;;;;;3.39;69.78;102028.94;4983835;28;20232;-46
2024/01/29 05:54:42;;;;;;;3.75;1.60;;;;;;;3.41;69.62;102027.19;4983378;28;20173;-46
2024/01/29 05:57:11;;;;;;;2.92;1.80;;;;;;;3.45;69.58;102016.66;4977217;28;20198;-45
2024/01/29 05:59:40;;;;;;;2.85;1.48;;;;;;;3.38;69.86;102013.94;4983116;28;20201;-46
2024/01/29 06:02:06;;;;;;;1.23;1.10;;;;;;;3.43;69.48;102009.56;4984004;28;20192;-47
2024/01/29 06:04:32;;;;;;;2.88;1.35;;;;;;;3.32;69.65;102006.78;4982733;28;20189;-46
2024/01/29 06:06:58;;;;;;;1.73;1.25;;;;;;;3.36;69.55;102010.38;4982405;28;20229;-46
2024/01/29 06:09:23;;;;;;;3.03;1.48;;;;;;;3.32;69.60;102028.00;4983670;28;20602;-47
2024/01/29 06:11:52;;;;;;;2.38;1.25;;;;;;;3.33;69.56;102028.91;4983149;28;20209;-45
2024/01/29 06:14:18;;;;;;;10.35;1.65;;;;;;;3.33;69.55;102029.78;4984000;28;20173;-47
2024/01/29 06:16:44;;;;;;;1.48;1.23;;;;;;;3.37;69.48;102028.03;4985241;28;20300;-47
2024/01/29 06:19:14;;;;;;;1.60;1.35;;;;;;;3.39;69.22;102023.63;4981669;28;20253;-46
2024/01/29 06:21:41;;;;;;;1.75;1.38;;;;;;;3.31;69.63;102023.56;4979861;28;20181;-45
2024/01/29 06:24:07;;;;;;;1.42;1.33;;;;;;;3.28;69.34;102020.91;4985564;28;20212;-46
2024/01/29 06:26:33;;;;;;;1.70;1.27;;;;;;;3.24;69.74;102021.75;4979625;28;20226;-46
2024/01/29 06:28:58;;;;;;;2.08;1.50;;;;;;;3.23;69.55;102022.59;4976906;28;20257;-45
2024/01/29 06:31:24;;;;;;;4.68;1.75;;;;;;;3.21;69.72;102038.47;4966977;28;20824;-46
2024/01/29 06:33:53;;;;;;;2.10;1.35;;;;;;;3.20;69.89;102046.41;4981193;28;20656;-45
2024/01/29 06:36:18;;;;;;;2.67;1.55;;;;;;;3.22;69.95;102036.72;4983924;28;20266;-46
2024/01/29 06:38:43;;;;;;;1.60;1.40;;;;;;;3.23;69.55;102035.84;4987297;28;20268;-47
2024/01/29 06:41:21;;;;;;;4.03;1.58;;;;;;;3.18;69.75;102043.72;4981660;28;20220;-45
2024/01/29 06:43:46;;;;;;;1.63;1.27;;;;;;;3.23;69.52;102046.44;4983272;28;20185;-47
2024/01/29 06:46:12;;;;;;;3.20;1.50;;;;;;;3.21;69.77;102035.81;4980214;28;20208;-46
2024/01/29 06:48:37;;;;;;;2.15;1.40;;;;;;;3.15;69.60;102049.00;4982783;28;20255;-47
2024/01/29 06:51:04;;;;;;;2.97;1.45;;;;;;;3.23;69.60;102046.44;4981983;28;20181;-47
2024/01/29 06:53:29;;;;;;;2.95;1.50;;;;;;;3.09;69.67;102047.16;4987320;28;20174;-46
2024/01/29 06:55:59;;;;;;;1.67;1.45;;;;;;;3.06;69.60;102051.50;4988655;28;20209;-46
2024/01/29 06:58:24;;;;;;;2.47;1.30;;;;;;;3.24;69.50;102057.06;4986398;28;20204;-46
2024/01/29 07:00:50;;;;;;;2.78;1.52;;;;;;;3.11;69.54;102052.47;4984097;28;20269;-46
2024/01/29 07:03:16;;;;;;;1.80;1.60;;;;;;;3.04;69.82;102053.25;4987885;28;20762;-47
2024/01/29 07:05:41;;;;;;;2.70;1.55;;;;;;;2.99;70.20;102071.72;4980517;28;20244;-46
2024/01/29 07:08:07;;;;;;;2.63;1.45;;;;;;;2.98;71.00;102064.69;4984727;28;20213;-46
2024/01/29 07:10:32;;;;;;;4.63;1.60;;;;;;;2.89;71.15;102086.63;4977166;28;20563;-46
2024/01/29 07:12:58;;;;;;;2.47;1.60;;;;;;;2.99;71.01;102084.97;4976130;28;20268;-46
2024/01/29 07:15:23;;;;;;;1.85;1.50;;;;;;;2.94;71.13;102084.03;4958667;28;20182;-47
2024/01/29 07:17:49;;;;;;;2.58;1.40;;;;;;;2.98;71.03;102083.22;4983111;28;20181;-47
2024/01/29 07:20:14;;;;;;;2.08;1.55;;;;;;;2.93;71.08;102086.66;4986623;28;20641;-45
2024/01/29 07:22:42;;;;;;;3.35;1.70;;;;;;;2.91;71.31;102094.59;4989267;28;20165;-47
2024/01/29 07:25:08;;;;;;;2.70;1.60;;;;;;;2.98;71.28;102092.91;4987263;28;20261;-46
2024/01/29 07:27:34;;;;;;;2.17;1.58;;;;;;;2.97;70.80;102094.66;4982281;28;20316;-45
2024/01/29 07:29:59;;;;;;;2.70;1.80;;;;;;;3.01;70.93;102101.75;4981538;28;20185;-45
2024/01/29 07:32:31;;;;;;;2.55;1.58;;;;;;;2.99;70.95;102086.72;4988702;28;20436;-46
2024/01/29 07:35:03;;;;;;;2.05;1.40;;;;;;;2.97;70.79;102085.81;4980353;28;20208;-47
2024/01/29 07:37:29;;;;;;;1.42;1.20;;;;;;;3.04;70.89;102088.59;4979833;28;20210;-45
2024/01/29 07:39:55;;;;;;;1.30;1.20;;;;;;;3.13;70.73;102097.50;4980925;28;20208;-45
2024/01/29 07:42:21;;;;;;;1.77;1.52;;;;;;;3.12;70.66;102099.25;4980144;28;20635;-45
2024/01/29 07:44:48;;;;;;;5.60;2.00;;;;;;;3.15;70.39;102101.97;4980044;28;20269;-45
2024/01/29 07:47:13;;;;;;;2.70;1.90;;;;;;;3.14;70.41;102092.22;4983905;28;20197;-45
2024/01/29 07:49:39;;;;;;;3.60;1.67;;;;;;;3.22;70.34;102097.63;4981688;28;20174;-47
2024/01/29 07:52:04;;;;;;;1.77;1.50;;;;;;;3.25;69.84;102087.94;4978962;28;20189;-46
2024/01/29 07:54:30;;;;;;;4.75;1.75;;;;;;;3.22;69.61;102101.16;4981650;28;20174;-47
2024/01/29 07:56:55;;;;;;;4.55;1.52;;;;;;;3.23;69.72;102091.47;4981666;28;20319;-45
2024/01/29 07:59:21;;;;;;;3.03;1.85;;;;;;;3.24;69.38;102101.19;4979115;28;20179;-46
2024/01/29 08:01:46;;;;;;;3.85;1.40;;;;;;;3.29;69.23;102086.25;4975807;28;20247;-45
2024/01/29 08:04:12;;;;;;;1.92;1.70;;;;;;;3.26;69.47;102095.03;4975960;28;20230;-46
2024/01/29 08:06:37;;;;;;;2.40;1.40;;;;;;;3.30;69.05;102088.00;4976339;28;20925;-45
2024/01/29 08:09:06;;;;;;;1.40;1.30;;;;;;;3.23;69.50;102097.63;4975615;28;21489;-46
2024/01/29 08:11:33;;;;;;;4.13;1.63;;;;;;;3.23;69.50;102087.03;4975546;28;20655;-46
2024/01/29 08:13:58;;;;;;;1.95;1.42;;;;;;;3.24;69.96;102094.13;4976223;28;20185;-46
2024/01/29 08:16:24;;;;;;;4.07;1.35;;;;;;;3.29;69.65;102096.84;4975887;28;20607;-45
2024/01/29 08:18:50;;;;;;;2.65;1.52;;;;;;;3.35;69.65;102101.34;4974175;28;20193;-45
2024/01/29 08:21:17;;;;;;;2.70;1.63;;;;;;;3.40;69.45;102102.25;4982702;28;20244;-46
2024/01/29 08:23:42;;;;;;;2.10;1.50;;;;;;;3.40;69.50;102095.19;4984272;28;20165;-46
2024/01/29 08:26:08;;;;;;;1.83;1.45;;;;;;;3.38;69.46;102096.06;4981085;28;20209;-46
2024/01/29 08:28:33;;;;;;;2.45;1.77;;;;;;;3.48;69.53;102101.47;4984200;28;20423;-46
2024/01/29 08:31:00;;;;;;;2.30;1.60;;;;;;;3.47;69.28;102104.97;4981707;28;20178;-48
2024/01/29 08:33:26;;;;;;;4.40;1.67;;;;;;;3.56;68.96;102098.91;4984931;28;20225;-46
2024/01/29 08:35:52;;;;;;;2.03;1.75;;;;;;;3.62;68.97;102108.69;4978520;28;20197;-47
2024/01/29 08:38:18;;;;;;;3.60;1.65;;;;;;;3.71;69.31;102117.63;4981329;28;20237;-46
2024/01/29 08:40:44;;;;;;;3.53;1.70;;;;;;;3.81;69.08;102120.41;4985924;28;20192;-46
2024/01/29 08:43:09;;;;;;;4.55;1.70;;;;;;;3.87;68.75;102124.00;4985943;28;20178;-47
2024/01/29 08:45:35;;;;;;;4.78;1.70;;;;;;;3.97;68.81;102117.00;4982085;28;20272;-47
2024/01/29 08:48:03;;;;;;;2.10;1.63;;;;;;;4.04;68.44;102121.47;4984203;28;20186;-47
2024/01/29 08:50:30;;;;;;;2.40;1.50;;;;;;;4.11;68.10;102115.38;4978683;28;20180;-48
2024/01/29 08:52:56;;;;;;;2.72;1.52;;;;;;;4.12;68.27;102117.16;4986201;28;20284;-47
2024/01/29 08:55:22;;;;;;;4.88;2.05;;;;;;;4.23;67.88;102121.66;4987103;28;20194;-47
2024/01/29 08:57:48;;;;;;;2.60;1.75;;;;;;;4.23;67.85;102109.28;4987484;28;20215;-47
2024/01/29 09:00:14;;;;;;;2.05;1.55;;;;;;;4.32;67.37;102106.72;4983943;28;20259;-48
2024/01/29 09:02:41;;;;;;;3.85;1.80;;;;;;;4.43;67.57;102098.84;4987317;28;20174;-47
2024/01/29 09:05:07;;;;;;;3.53;1.80;;;;;;;4.42;67.22;102075.84;4981440;28;20628;-47
2024/01/29 09:07:33;;;;;;;2.80;1.63;;;;;;;4.40;67.02;102079.38;4982040;28;20229;-47
2024/01/29 09:09:58;;;;;;;2.58;2.10;;;;;;;4.57;66.81;102082.13;4987481;28;20174;-46
2024/01/29 09:12:24;;;;;;;1.98;1.50;;;;;;;4.68;66.97;102077.75;4983279;28;20194;-46
2024/01/29 09:14:49;;;;;;;2.58;1.38;;;;;;;4.72;66.63;102076.91;4983400;28;20726;-46
2024/01/29 09:17:15;;;;;;;4.63;2.03;;;;;;;4.86;66.12;102079.66;4983399;28;20215;-47
2024/01/29 09:19:40;;;;;;;1.83;1.50;;;;;;;4.97;65.75;102080.59;4984884;28;20380;-45
2024/01/29 09:22:06;;;;;;;1.85;1.42;;;;;;;4.93;66.09;102078.81;4984274;28;20176;-48
2024/01/29 09:24:31;;;;;;;1.80;1.50;;;;;;;5.12;65.60;102070.03;4982135;28;20280;-47
2024/01/29 09:26:57;;;;;;;1.83;1.35;;;;;;;5.19;65.29;102060.31;4981270;28;20208;-45
2024/01/29 09:29:22;;;;;;;2.58;1.70;;;;;;;5.21;64.88;102055.03;4981869;28;20185;-45
2024/01/29 09:31:48;;;;;;;5.38;1.75;;;;;;;5.35;64.82;102064.81;4986331;28;20202;-45
2024/01/29 09:34:14;;;;;;;3.53;1.70;;;;;;;5.39;64.59;102056.84;4978010;28;20190;-44
2024/01/29 09:36:39;;;;;;;1.60;1.50;;;;;;;5.46;64.21;102064.84;4984132;28;20248;-47
2024/01/29 09:39:05;;;;;;;3.40;1.63;;;;;;;5.63;64.46;102058.69;4982700;28;20199;-45
2024/01/29 09:41:34;;;;;;;3.75;1.92;;;;;;;5.61;64.06;102048.03;4973126;28;20240;-45
2024/01/29 09:44:04;;;;;;;3.50;1.70;;;;;;;5.57;63.86;102052.47;4983452;28;20174;-46
2024/01/29 09:46:31;;;;;;;2.45;1.35;;;;;;;5.71;64.14;102064.91;4975752;28;20741;-46
2024/01/29 09:48:58;;;;;;;4.22;2.05;;;;;;;5.82;63.77;102064.94;4964164;22;20341;-44
2024/01/29 09:51:25;;;;;;;2.58;1.73;;;;;;;5.84;63.83;102071.09;4960779;28;20201;-45
2024/01/29 09:53:53;;;;;;;1.90;1.63;;;;;;;5.90;63.83;102080.00;4961747;28;20185;-45
2024/01/29 09:56:19;;;;;;;2.55;1.70;;;;;;;6.10;63.73;102069.41;4963153;28;20201;-43
2024/01/29 09:58:44;;;;;;;2.35;2.00;;;;;;;5.99;63.50;102065.84;4964374;28;20194;-44
2024/01/29 10:01:11;;;;;;;2.75;1.98;;;;;;;6.10;63.61;102063.19;4945023;28;20202;-43
2024/01/29 10:03:38;;;;;;;3.42;1.95;;;;;;;6.07;63.18;102056.09;4963276;28;20197;-45
2024/01/29 10:06:04;;;;;;;2.90;1.83;;;;;;;6.11;62.78;102063.19;4957665;28;20209;-45
2024/01/29 10:08:30;;;;;;;3.60;2.17;;;;;;;6.06;62.96;102058.78;4946265;28;20657;-43
2024/01/29 10:10:56;;;;;;;3.65;2.15;;;;;;;6.01;62.87;102068.50;4958928;28;20205;-45
2024/01/29 10:13:21;;;;;;;3.92;1.65;;;;;;;6.16;63.13;102082.69;4962976;28;20248;-43
2024/01/29 10:15:47;;;;;;;2.88;1.80;;;;;;;6.09;63.23;102088.91;4962220;28;20726;-43
2024/01/29 10:18:14;;;;;;;3.65;2.03;;;;;;;6.18;62.88;102064.06;4962296;28;20277;-42
2024/01/29 10:20:40;;;;;;;2.10;1.65;;;;;;;6.21;62.97;102081.81;4958792;28;20202;-44
2024/01/29 10:23:06;;;;;;;4.88;2.50;;;;;;;6.29;63.14;102078.25;4960768;28;20290;-43
2024/01/29 10:25:34;;;;;;;3.53;2.00;;;;;;;6.34;63.68;102087.16;4967558;28;20627;-43
2024/01/29 10:28:08;;;;;;;6.28;1.92;;;;;;;6.31;63.57;102088.91;4961704;28;20181;-46
2024/01/29 10:30:33;;;;;;;3.83;2.00;;;;;;;6.26;63.42;102091.59;4959314;28;20197;-44
2024/01/29 10:32:59;;;;;;;2.78;2.10;;;;;;;6.43;63.61;102091.59;4960506;28;20230;-41
2024/01/29 10:35:25;;;;;;;3.95;2.25;;;;;;;6.33;63.82;102084.47;4946094;28;20182;-40
2024/01/29 10:37:50;;;;;;;3.38;2.20;;;;;;;6.33;63.53;102076.50;4960993;28;20194;-40
2024/01/29 10:40:21;;;;;;;2.55;1.98;;;;;;;6.52;63.71;102099.56;4963052;28;20226;-40
2024/01/29 10:42:49;;;;;;;3.75;2.40;;;;;;;6.57;64.18;102104.88;4960819;28;20269;-40
2024/01/29 10:45:19;;;;;;;3.47;2.00;;;;;;;6.56;63.61;102085.34;4962293;28;20604;-40
2024/01/29 10:47:49;;;;;;;3.70;2.25;;;;;;;6.68;63.56;102094.22;4959518;28;20210;-38
2024/01/29 10:50:19;;;;;;;5.57;2.10;;;;;;;6.92;63.64;102102.13;4982086;28;20545;-39
2024/01/29 10:52:46;;;;;;;6.03;2.30;;;;;;;6.65;63.55;102084.47;4979869;28;20178;-40
2024/01/29 10:55:15;;;;;;;2.95;2.25;;;;;;;6.77;63.47;102097.72;4983819;28;20532;-41
2024/01/29 10:57:45;;;;;;;4.32;2.35;;;;;;;6.64;63.70;102098.66;4981331;28;20662;-41
2024/01/29 11:00:11;;;;;;;4.38;2.10;;;;;;;6.76;64.03;102103.09;4983298;28;20245;-41
2024/01/29 11:02:39;;;;;;;4.53;2.20;;;;;;;6.70;64.04;102103.97;4984833;28;20705;-41
2024/01/29 11:05:06;;;;;;;4.30;2.65;;;;;;;6.82;64.11;102105.72;4978999;28;20174;-43
2024/01/29 11:07:33;;;;;;;3.75;2.50;;;;;;;6.80;63.98;102099.53;4983645;28;20671;-41
2024/01/29 11:10:13;;;;;;;2.78;1.90;;;;;;;6.93;64.16;102106.59;4980885;28;20177;-41
2024/01/29 11:12:40;;;;;;;3.55;2.03;;;;;;;7.06;65.43;102127.84;4978641;28;20193;-40
2024/01/29 11:15:06;;;;;;;4.03;2.00;;;;;;;7.04;64.65;102127.88;4987201;28;20184;-41
2024/01/29 11:17:31;;;;;;;4.60;2.67;;;;;;;6.98;64.44;102117.25;4983937;28;20198;-43
2024/01/29 11:20:09;;;;;;;3.42;2.42;;;;;;;7.22;65.25;102138.47;4982079;28;20252;-42
2024/01/29 11:22:57;;;;;;;3.25;2.05;;;;;;;6.99;64.86;102117.22;4978752;28;20178;-43
2024/01/29 11:25:29;;;;;;;3.00;2.30;;;;;;;7.02;64.82;102116.34;4982317;28;20202;-42
2024/01/29 11:27:58;;;;;;;3.20;2.85;;;;;;;7.07;64.99;102119.00;4977150;28;20728;-42
2024/01/29 11:30:26;;;;;;;4.53;2.17;;;;;;;7.08;64.96;102134.06;4980835;28;20675;-43